Time;durP1;ratioP1;P1;durP2;ratioP2;P2;SDS_P1;SDS_P2;PMS_P1;PMS_P2;Temp;Humidity;BMP_temperature;BMP_pressure;BME280_temperature;BME280_humidity;BME280_pressure;Samples;Min_cycle;Max_cycle;Signal;HPM_P1;HPM_P2
2021/09/01 00:01:23;;;;;;;1.10;0.90;;;23.00;56.90;;;;;;6199930;23;20426;-86
2021/09/01 00:03:48;;;;;;;1.13;0.93;;;23.00;57.00;;;;;;6198287;23;20167;-87
2021/09/01 00:06:14;;;;;;;1.17;1.07;;;23.00;56.90;;;;;;6199268;23;20151;-86
2021/09/01 00:08:40;;;;;;;1.23;0.93;;;23.00;57.00;;;;;;6173361;23;20194;-86
2021/09/01 00:11:14;;;;;;;1.60;1.07;;;23.00;57.00;;;;;;6198186;23;20246;-86
2021/09/01 00:13:41;;;;;;;1.97;1.10;;;23.00;57.00;;;;;;6172458;23;20189;-86
2021/09/01 00:16:07;;;;;;;1.50;1.40;;;23.00;57.00;;;;;;6172524;23;20394;-86
2021/09/01 00:18:32;;;;;;;1.03;0.93;;;23.00;57.00;;;;;;6199547;23;20371;-86
2021/09/01 00:21:01;;;;;;;1.10;0.90;;;23.00;57.00;;;;;;6198630;23;20494;-86
2021/09/01 00:23:26;;;;;;;1.30;1.07;;;23.00;57.00;;;;;;6172837;23;20418;-86
2021/09/01 00:26:00;;;;;;;1.50;1.10;;;23.00;57.00;;;;;;6172921;23;20449;-86
2021/09/01 00:28:30;;;;;;;1.20;1.00;;;23.00;57.00;;;;;;6172207;23;20152;-86
2021/09/01 00:30:56;;;;;;;1.23;1.10;;;23.00;57.00;;;;;;6172780;23;20383;-87
2021/09/01 00:33:22;;;;;;;1.10;1.00;;;22.90;57.00;;;;;;6172369;23;20394;-86
2021/09/01 00:35:50;;;;;;;1.50;1.30;;;22.90;57.00;;;;;;6173178;23;20172;-86
2021/09/01 00:38:22;;;;;;;1.20;1.00;;;22.90;57.00;;;;;;6173245;23;20166;-86
2021/09/01 00:40:48;;;;;;;1.47;1.37;;;22.90;57.00;;;;;;6173323;23;20422;-86
2021/09/01 00:43:13;;;;;;;1.20;1.00;;;22.90;57.00;;;;;;6198856;23;20439;-87
2021/09/01 00:45:46;;;;;;;1.20;0.90;;;22.90;57.00;;;;;;6173119;23;20155;-86
2021/09/01 00:48:20;;;;;;;1.10;1.00;;;22.90;57.00;;;;;;6198637;23;20150;-87
2021/09/01 00:50:51;;;;;;;1.27;1.00;;;22.90;57.00;;;;;;6199333;23;20426;-86
2021/09/01 00:53:20;;;;;;;1.10;1.00;;;22.90;57.00;;;;;;6172048;23;20462;-86
2021/09/01 00:55:47;;;;;;;1.30;1.10;;;22.90;57.00;;;;;;6172997;23;20383;-87
2021/09/01 00:58:19;;;;;;;1.40;1.03;;;22.90;57.00;;;;;;6197021;23;20379;-86
2021/09/01 01:03:30;;;;;;;1.17;0.90;;;22.90;57.00;;;;;;6208814;23;20360;-86
2021/09/01 01:05:59;;;;;;;1.20;1.00;;;22.90;57.00;;;;;;6172557;23;20385;-86
2021/09/01 01:08:34;;;;;;;1.00;0.90;;;22.90;57.00;;;;;;6172323;23;20152;-86
2021/09/01 01:11:00;;;;;;;1.07;0.93;;;22.90;57.10;;;;;;6172357;23;20389;-86
2021/09/01 01:13:30;;;;;;;1.00;0.90;;;22.90;57.10;;;;;;6172431;23;20441;-86
2021/09/01 01:15:56;;;;;;;1.07;0.97;;;22.90;57.10;;;;;;6171717;23;20399;-86
2021/09/01 01:18:22;;;;;;;1.30;1.20;;;22.90;57.10;;;;;;6171438;23;20391;-86
2021/09/01 01:20:55;;;;;;;1.43;1.10;;;22.90;57.10;;;;;;6172011;23;20419;-86
2021/09/01 01:23:24;;;;;;;1.30;1.20;;;22.90;57.10;;;;;;6198285;23;20492;-86
2021/09/01 01:25:51;;;;;;;1.30;0.93;;;22.90;57.10;;;;;;6172512;23;20383;-86
2021/09/01 01:28:17;;;;;;;1.17;1.00;;;22.90;57.10;;;;;;6172402;23;20382;-87
2021/09/01 01:30:43;;;;;;;1.60;1.20;;;22.90;57.10;;;;;;6172125;23;20382;-86
2021/09/01 01:33:09;;;;;;;1.20;1.10;;;22.90;57.10;;;;;;6173204;23;20387;-86
2021/09/01 01:39:02;;;;;;;1.20;1.10;;;22.90;57.10;;;;;;6197829;23;20381;-86
2021/09/01 01:41:30;;;;;;;1.17;1.07;;;22.80;57.20;;;;;;6198416;23;20816;-86
2021/09/01 01:43:56;;;;;;;1.00;0.90;;;22.80;57.20;;;;;;6198890;23;20371;-86
2021/09/01 01:46:22;;;;;;;1.10;0.90;;;22.80;57.10;;;;;;6198623;23;20679;-86
2021/09/01 01:48:49;;;;;;;1.20;1.10;;;22.80;57.20;;;;;;6197991;23;20154;-86
2021/09/01 01:51:20;;;;;;;1.23;1.03;;;22.90;57.20;;;;;;6172574;23;20230;-86
2021/09/01 01:53:46;;;;;;;1.23;1.00;;;22.90;57.20;;;;;;6186980;23;20485;-86
2021/09/01 01:56:12;;;;;;;1.50;1.40;;;22.90;57.20;;;;;;6228436;23;20417;-86
2021/09/01 01:58:38;;;;;;;1.13;1.03;;;22.90;57.20;;;;;;6227291;23;20186;-86
2021/09/01 02:01:03;;;;;;;1.33;1.10;;;22.80;57.10;;;;;;6228919;23;20167;-86
2021/09/01 02:03:32;;;;;;;1.43;1.33;;;22.80;57.10;;;;;;6228335;23;20170;-86
2021/09/01 02:05:58;;;;;;;1.10;0.90;;;22.90;57.20;;;;;;6225914;23;20167;-88
2021/09/01 02:08:26;;;;;;;1.53;1.10;;;22.90;57.20;;;;;;6228604;23;20382;-88
2021/09/01 02:10:52;;;;;;;1.40;1.10;;;22.90;57.20;;;;;;6252152;23;20151;-87
2021/09/01 02:13:18;;;;;;;1.30;0.93;;;22.80;57.10;;;;;;6229034;23;20848;-87
2021/09/01 02:15:43;;;;;;;1.40;1.20;;;22.80;57.10;;;;;;6254773;23;20155;-87
2021/09/01 02:18:12;;;;;;;1.20;1.00;;;22.90;57.20;;;;;;6228919;23;20601;-87
2021/09/01 02:20:38;;;;;;;1.20;1.10;;;22.80;57.10;;;;;;6255429;23;20186;-87
2021/09/01 02:23:03;;;;;;;1.00;0.90;;;22.80;57.10;;;;;;6231661;23;20371;-87
2021/09/01 02:25:30;;;;;;;1.10;1.00;;;22.80;57.10;;;;;;6235215;23;20373;-87
2021/09/01 02:27:56;;;;;;;1.10;0.90;;;22.80;57.10;;;;;;6258113;23;20578;-87
2021/09/01 02:30:24;;;;;;;1.40;1.00;;;22.80;57.10;;;;;;6230179;23;20412;-87
2021/09/01 02:32:50;;;;;;;1.10;1.00;;;22.80;57.10;;;;;;6259015;23;20162;-87
2021/09/01 02:35:18;;;;;;;1.27;1.00;;;22.80;57.20;;;;;;6256164;23;20469;-87
2021/09/01 02:37:52;;;;;;;1.20;1.10;;;22.80;57.20;;;;;;6256449;23;20406;-87
2021/09/01 02:40:19;;;;;;;1.00;0.90;;;22.80;57.10;;;;;;6235025;23;20433;-87
2021/09/01 02:42:44;;;;;;;1.33;1.13;;;22.80;57.20;;;;;;6230547;23;20382;-87
2021/09/01 02:45:11;;;;;;;1.40;1.10;;;22.80;57.20;;;;;;6229133;23;20386;-87
2021/09/01 02:47:37;;;;;;;1.00;0.90;;;22.80;57.10;;;;;;6230555;23;20202;-87
2021/09/01 02:50:12;;;;;;;1.57;1.20;;;22.80;57.10;;;;;;6230172;23;20374;-87
2021/09/01 02:52:38;;;;;;;1.17;1.00;;;22.90;57.20;;;;;;6254633;23;20382;-88
2021/09/01 02:55:05;;;;;;;2.20;1.00;;;22.80;57.20;;;;;;6253880;23;20408;-87
2021/09/01 02:57:34;;;;;;;1.07;0.97;;;22.80;57.20;;;;;;6228715;23;20162;-87
2021/09/01 03:00:03;;;;;;;1.20;1.00;;;22.80;57.20;;;;;;6229503;23;20415;-87
2021/09/01 03:02:29;;;;;;;1.10;1.00;;;22.80;57.20;;;;;;6228264;23;20869;-87
2021/09/01 03:04:55;;;;;;;1.20;1.10;;;22.80;57.20;;;;;;6253870;23;20405;-87
2021/09/01 03:07:21;;;;;;;1.23;1.03;;;22.80;57.20;;;;;;6230031;23;20451;-87
2021/09/01 03:09:54;;;;;;;1.63;1.10;;;22.80;57.20;;;;;;6228719;23;20151;-87
2021/09/01 03:12:20;;;;;;;1.10;1.00;;;22.80;57.20;;;;;;6228930;23;20136;-87
2021/09/01 03:14:46;;;;;;;1.20;1.10;;;22.80;57.20;;;;;;6228246;23;20468;-87
2021/09/01 03:17:11;;;;;;;1.47;1.00;;;22.80;57.20;;;;;;6230441;23;20139;-88
2021/09/01 03:23:00;;;;;;;1.40;1.10;;;22.90;57.20;;;;;;6234114;23;20221;-87
2021/09/01 03:25:26;;;;;;;1.00;0.90;;;22.80;57.20;;;;;;6231803;23;20367;-87
2021/09/01 03:27:52;;;;;;;1.50;1.20;;;22.80;57.30;;;;;;6253915;23;20387;-87
2021/09/01 03:30:18;;;;;;;1.10;0.90;;;22.80;57.30;;;;;;6258299;23;20155;-87
2021/09/01 03:32:43;;;;;;;1.67;1.17;;;22.80;57.20;;;;;;6232082;23;20377;-87
2021/09/01 03:35:09;;;;;;;1.30;1.10;;;22.80;57.20;;;;;;6254886;23;20166;-87
2021/09/01 03:37:57;;;;;;;1.20;1.00;;;22.80;57.20;;;;;;6233838;23;20155;-87
2021/09/01 03:40:24;;;;;;;1.30;1.20;;;22.80;57.20;;;;;;6204189;23;20444;-87
2021/09/01 03:42:50;;;;;;;1.33;1.23;;;22.80;57.20;;;;;;6228115;23;20410;-87
2021/09/01 03:45:16;;;;;;;1.30;1.10;;;22.80;57.20;;;;;;6229368;23;20150;-87
2021/09/01 03:47:42;;;;;;;1.53;1.10;;;22.80;57.20;;;;;;6228967;23;20681;-87
2021/09/01 03:50:11;;;;;;;1.20;1.00;;;22.80;57.20;;;;;;6229352;23;20696;-87
2021/09/01 03:52:37;;;;;;;1.10;1.00;;;22.80;57.20;;;;;;6228144;23;20155;-87
2021/09/01 03:55:08;;;;;;;1.20;0.97;;;22.80;57.20;;;;;;6201623;23;20454;-87
2021/09/01 03:57:35;;;;;;;1.00;0.90;;;22.80;57.20;;;;;;6171846;23;20387;-87
2021/09/01 04:00:05;;;;;;;1.40;1.10;;;22.80;57.20;;;;;;6197660;23;20505;-87
2021/09/01 04:02:34;;;;;;;1.23;1.00;;;22.80;57.20;;;;;;6197082;23;20368;-87
2021/09/01 04:05:06;;;;;;;1.10;1.00;;;22.80;57.30;;;;;;6171958;23;20420;-87
2021/09/01 04:07:34;;;;;;;1.20;0.97;;;22.80;57.20;;;;;;6171304;23;20394;-87
2021/09/01 04:10:08;;;;;;;1.27;1.10;;;22.80;57.20;;;;;;6171912;23;20426;-86
2021/09/01 04:12:33;;;;;;;1.20;1.00;;;22.80;57.30;;;;;;6171587;23;20394;-86
2021/09/01 04:15:02;;;;;;;1.40;1.20;;;22.80;57.30;;;;;;6171523;23;20414;-85
2021/09/01 04:17:30;;;;;;;1.27;0.93;;;22.80;57.20;;;;;;6171270;23;20156;-86
2021/09/01 04:19:59;;;;;;;1.23;0.80;;;22.80;57.80;;;;;;6173847;23;20391;-87
2021/09/01 04:22:27;;;;;;;1.10;0.90;;;22.80;57.20;;;;;;6202484;23;20375;-87
2021/09/01 04:25:27;;;;;;;1.53;1.30;;;22.80;57.20;;;;;;6198647;23;20810;-87
2021/09/01 04:27:53;;;;;;;1.20;1.00;;;22.80;57.20;;;;;;6174134;23;20474;-86
2021/09/01 04:30:19;;;;;;;1.30;1.10;;;22.80;57.20;;;;;;6201755;23;20830;-87
2021/09/01 04:32:45;;;;;;;1.40;1.20;;;22.80;57.20;;;;;;6197551;23;20391;-86
2021/09/01 04:35:16;;;;;;;1.33;1.00;;;22.80;57.20;;;;;;6175862;23;20191;-86
2021/09/01 04:37:53;;;;;;;1.27;1.17;;;22.80;57.10;;;;;;6173942;23;20158;-87
2021/09/01 04:40:19;;;;;;;1.30;1.20;;;22.90;57.20;;;;;;6197469;23;20406;-86
2021/09/01 04:42:50;;;;;;;1.40;1.20;;;22.80;57.10;;;;;;6171115;23;20410;-86
2021/09/01 04:45:16;;;;;;;1.13;1.03;;;22.90;57.10;;;;;;6196873;23;20146;-86
2021/09/01 04:47:44;;;;;;;1.50;1.40;;;22.90;57.10;;;;;;6171506;23;20789;-87
2021/09/01 04:50:10;;;;;;;1.70;1.37;;;22.90;57.00;;;;;;6170934;23;20156;-86
2021/09/01 04:52:36;;;;;;;1.43;1.30;;;22.90;57.00;;;;;;6171067;23;20513;-86
2021/09/01 04:55:04;;;;;;;1.13;1.03;;;22.90;57.00;;;;;;6217864;23;20721;-86
2021/09/01 04:57:30;;;;;;;1.80;1.27;;;22.90;57.00;;;;;;6161863;23;1624682;-86
2021/09/01 04:59:58;;;;;;;1.80;1.27;;;22.90;57.00;;;;;;6228873;23;20155;-86
2021/09/01 05:02:24;;;;;;;1.40;1.30;;;22.90;56.90;;;;;;6253137;23;20897;-86
2021/09/01 05:04:50;;;;;;;1.50;1.30;;;23.00;57.00;;;;;;6227501;23;20389;-86
2021/09/01 05:07:18;;;;;;;1.60;1.40;;;23.00;57.50;;;;;;6252923;23;20378;-86
2021/09/01 05:09:44;;;;;;;1.80;1.60;;;23.00;56.90;;;;;;6252530;23;20151;-86
2021/09/01 05:12:11;;;;;;;1.90;1.60;;;23.00;56.90;;;;;;6252440;23;20369;-85
2021/09/01 05:14:39;;;;;;;1.60;1.40;;;23.00;56.90;;;;;;6229588;23;20489;-86
2021/09/01 05:17:09;;;;;;;1.80;1.50;;;23.00;56.80;;;;;;6254111;23;20379;-86
2021/09/01 05:19:37;;;;;;;1.50;1.30;;;23.00;56.80;;;;;;6231510;23;20386;-86
2021/09/01 05:22:05;;;;;;;1.27;1.13;;;23.00;56.80;;;;;;6230935;23;20410;-86
2021/09/01 05:25:22;;;;;;;;;;;;;;;;;;;;;
2021/09/01 05:28:03;;;;;;;1.47;1.10;;;23.00;56.80;;;;;;6232992;23;20366;-87
2021/09/01 05:30:35;;;;;;;1.40;1.30;;;23.00;56.80;;;;;;6229567;23;20351;-88
2021/09/01 05:33:04;;;;;;;1.80;1.70;;;23.00;56.80;;;;;;6232602;23;20394;-87
2021/09/01 05:35:44;;;;;;;1.70;1.60;;;23.00;56.80;;;;;;6229530;23;20374;-88
2021/09/01 05:38:11;;;;;;;2.10;1.70;;;23.00;56.80;;;;;;6227976;23;20378;-87
2021/09/01 05:40:43;;;;;;;2.00;1.50;;;23.00;56.80;;;;;;6227938;23;20442;-87
2021/09/01 05:43:11;;;;;;;1.60;1.43;;;23.00;56.80;;;;;;6230009;23;20433;-87
2021/09/01 05:45:40;;;;;;;1.97;1.43;;;23.00;56.80;;;;;;6229297;23;20366;-87
2021/09/01 05:48:07;;;;;;;2.00;1.60;;;23.00;56.80;;;;;;6230247;23;20366;-87
2021/09/01 05:50:33;;;;;;;2.03;1.53;;;23.00;56.80;;;;;;6231495;23;20374;-87
2021/09/01 05:53:12;;;;;;;1.80;1.63;;;23.00;56.80;;;;;;6232055;23;20378;-87
2021/09/01 05:55:43;;;;;;;2.60;1.70;;;23.10;56.80;;;;;;6253614;23;20421;-87
2021/09/01 05:58:15;;;;;;;2.00;1.70;;;23.00;56.80;;;;;;6201789;23;20373;-87
2021/09/01 06:00:44;;;;;;;1.90;1.70;;;23.00;56.80;;;;;;6201473;23;20880;-87
2021/09/01 06:03:23;;;;;;;2.17;1.57;;;23.00;56.80;;;;;;6175270;23;20379;-88
2021/09/01 06:05:55;;;;;;;2.07;1.87;;;23.00;56.80;;;;;;6174527;23;20540;-87
2021/09/01 06:08:24;;;;;;;2.20;1.97;;;23.10;56.80;;;;;;6175046;23;20367;-87
2021/09/01 06:11:00;;;;;;;2.27;1.80;;;23.00;56.70;;;;;;6201904;23;20733;-87
2021/09/01 06:13:29;;;;;;;2.60;2.00;;;23.00;56.70;;;;;;6175463;23;20370;-87
2021/09/01 06:15:56;;;;;;;2.00;1.80;;;23.10;56.80;;;;;;6178264;23;20406;-86
2021/09/01 06:18:23;;;;;;;1.60;1.50;;;23.10;56.80;;;;;;6179583;23;20430;-87
2021/09/01 06:20:49;;;;;;;1.80;1.50;;;23.10;56.80;;;;;;6178621;23;20422;-87
2021/09/01 06:23:17;;;;;;;1.87;1.77;;;23.00;56.70;;;;;;6182303;23;20383;-87
2021/09/01 06:25:59;;;;;;;1.30;1.10;;;23.10;56.80;;;;;;6207901;23;20434;-87
2021/09/01 06:28:30;;;;;;;1.50;1.40;;;23.10;56.80;;;;;;6178532;23;20371;-87
2021/09/01 06:30:58;;;;;;;1.90;1.70;;;23.10;56.80;;;;;;6180609;23;20382;-87
2021/09/01 06:33:24;;;;;;;1.50;1.40;;;23.10;56.90;;;;;;6179037;23;20375;-86
2021/09/01 06:35:50;;;;;;;1.70;1.40;;;23.10;56.90;;;;;;6178461;23;20394;-86
2021/09/01 06:38:18;;;;;;;1.50;1.37;;;23.10;56.90;;;;;;6201366;23;20186;-87
2021/09/01 06:40:47;;;;;;;2.27;2.07;;;23.10;56.80;;;;;;6175654;23;20175;-87
2021/09/01 06:43:28;;;;;;;1.40;1.30;;;23.10;56.80;;;;;;6175313;23;20406;-86
2021/09/01 06:45:56;;;;;;;2.33;2.03;;;23.10;56.80;;;;;;6200893;23;20367;-86
2021/09/01 06:48:34;;;;;;;1.30;1.20;;;23.10;56.80;;;;;;6174913;23;20387;-86
2021/09/01 06:51:00;;;;;;;1.77;1.30;;;23.10;56.80;;;;;;6196664;23;20387;-85
2021/09/01 06:53:26;;;;;;;1.20;1.00;;;23.10;56.80;;;;;;6200968;23;20756;-87
2021/09/01 06:55:54;;;;;;;2.10;1.57;;;23.10;56.80;;;;;;6200028;23;20228;-87
2021/09/01 06:58:20;;;;;;;1.80;1.50;;;23.10;56.80;;;;;;6198888;23;20415;-86
2021/09/01 07:00:52;;;;;;;1.70;1.57;;;23.10;56.90;;;;;;6174013;23;20418;-87
2021/09/01 07:03:23;;;;;;;1.73;1.30;;;23.10;56.80;;;;;;6174149;23;20160;-87
2021/09/01 07:05:55;;;;;;;1.40;1.27;;;23.10;56.80;;;;;;6150943;23;20398;-87
2021/09/01 07:08:23;;;;;;;1.83;1.37;;;23.10;57.40;;;;;;6174371;23;20374;-86
2021/09/01 07:10:50;;;;;;;1.93;1.40;;;23.10;56.80;;;;;;6175018;23;20418;-86
2021/09/01 07:13:43;;;;;;;1.40;1.20;;;23.10;56.80;;;;;;6205358;23;20402;-87
2021/09/01 07:16:13;;;;;;;1.60;1.47;;;23.20;56.90;;;;;;6179442;23;20406;-87
2021/09/01 07:18:48;;;;;;;1.40;1.30;;;23.10;56.90;;;;;;6176869;23;20399;-87
2021/09/01 07:21:24;;;;;;;1.40;1.20;;;23.20;56.90;;;;;;6178744;23;20418;-86
2021/09/01 07:23:56;;;;;;;2.00;1.53;;;23.10;56.80;;;;;;6204237;23;20371;-86
2021/09/01 07:26:36;;;;;;;1.63;1.40;;;23.20;56.90;;;;;;6203174;23;20358;-87
2021/09/01 07:29:03;;;;;;;1.60;1.50;;;23.20;56.90;;;;;;6177499;23;20425;-86
2021/09/01 07:31:45;;;;;;;1.80;1.63;;;23.10;56.80;;;;;;6173164;23;20707;-86
2021/09/01 07:34:20;;;;;;;2.03;1.83;;;23.20;56.90;;;;;;6174680;23;20370;-86
2021/09/01 07:36:56;;;;;;;1.77;1.53;;;23.20;56.90;;;;;;6174927;23;20386;-86
2021/09/01 07:39:25;;;;;;;2.00;1.70;;;23.20;56.90;;;;;;6173430;23;20393;-86
2021/09/01 07:48:49;;;;;;;1.50;1.30;;;23.20;56.90;;;;;;6080772;23;20411;-86
2021/09/01 07:51:30;;;;;;;2.43;2.23;;;23.10;56.90;;;;;;6080000;23;20382;-86
2021/09/01 07:54:02;;;;;;;2.10;1.63;;;23.20;57.00;;;;;;6080181;23;20425;-88
2021/09/01 07:56:50;;;;;;;2.43;1.70;;;23.20;57.00;;;;;;6055344;23;20406;-87
2021/09/01 07:59:37;;;;;;;1.70;1.33;;;23.20;56.90;;;;;;6080910;23;20450;-87
2021/09/01 08:02:04;;;;;;;1.50;1.40;;;23.20;57.00;;;;;;6080301;23;20474;-87
2021/09/01 08:04:41;;;;;;;2.30;1.90;;;23.20;57.00;;;;;;6080097;23;20407;-87
2021/09/01 08:07:19;;;;;;;1.50;1.40;;;23.20;56.90;;;;;;6055988;23;20390;-87
2021/09/01 08:09:54;;;;;;;1.73;1.57;;;23.20;56.90;;;;;;6081117;23;20402;-85
2021/09/01 08:13:06;;;;;;;1.63;1.20;;;23.20;56.90;;;;;;6080532;23;20412;-85
2021/09/01 08:16:15;;;;;;;1.60;1.40;;;23.20;56.90;;;;;;6080292;23;20461;-86
2021/09/01 08:28:35;;;;;;;1.70;1.43;;;23.20;57.00;;;;;;6109126;23;20370;-86
2021/09/01 08:31:05;;;;;;;1.40;1.20;;;23.20;57.00;;;;;;6109073;23;20413;-86
2021/09/01 08:37:02;;;;;;;1.50;1.40;;;23.30;57.00;;;;;;6109486;23;20434;-86
2021/09/01 08:40:07;;;;;;;;;;;;;;;;;;;;;
2021/09/01 08:42:43;;;;;;;1.27;1.07;;;23.20;57.00;;;;;;6108462;23;20417;-86
2021/09/01 08:45:29;;;;;;;2.00;1.30;;;23.20;57.00;;;;;;6084620;23;20459;-86
2021/09/01 08:57:51;;;;;;;1.40;1.23;;;23.30;57.00;;;;;;5992773;23;20384;-86
2021/09/01 09:03:04;;;;;;;1.40;1.20;;;23.30;57.10;;;;;;5967761;24;20446;-85
2021/09/01 09:05:40;;;;;;;1.30;1.20;;;23.30;57.00;;;;;;5967380;24;20389;-86
2021/09/01 09:08:21;;;;;;;1.60;1.37;;;23.30;57.00;;;;;;6003220;23;20393;-86
2021/09/01 09:10:50;;;;;;;1.40;1.30;;;23.30;57.00;;;;;;6055643;23;20469;-86
2021/09/01 09:13:33;;;;;;;2.10;1.40;;;23.30;57.00;;;;;;6080170;23;20390;-86
2021/09/01 09:23:06;;;;;;;1.60;1.30;;;23.30;57.00;;;;;;6025039;23;20392;-86
2021/09/01 09:29:21;;;;;;;1.73;1.63;;;23.30;57.00;;;;;;6024764;23;20400;-85
2021/09/01 09:35:12;;;;;;;1.77;1.30;;;23.30;57.00;;;;;;6169739;23;20366;-85
2021/09/01 09:41:09;;;;;;;1.60;1.30;;;23.30;57.00;;;;;;6168843;23;20430;-85
2021/09/01 09:43:38;;;;;;;1.37;1.20;;;23.30;57.10;;;;;;6144421;23;20398;-85
2021/09/01 09:46:12;;;;;;;1.40;1.30;;;23.30;57.10;;;;;;6170019;23;20700;-86
2021/09/01 09:48:43;;;;;;;1.43;1.30;;;23.30;57.00;;;;;;6144275;23;20388;-85
2021/09/01 09:51:58;;;;;;;1.47;1.20;;;23.30;57.00;;;;;;6143354;23;20399;-85
2021/09/01 09:54:33;;;;;;;2.00;1.70;;;23.30;57.00;;;;;;6148229;23;20532;-85
2021/09/01 09:57:13;;;;;;;1.30;1.20;;;23.30;57.00;;;;;;6205149;23;20404;-85
2021/09/01 09:59:46;;;;;;;1.23;1.13;;;23.30;57.00;;;;;;6216129;23;20452;-85
2021/09/01 10:02:35;;;;;;;1.60;1.40;;;23.30;57.00;;;;;;6174910;23;20427;-85
2021/09/01 10:05:13;;;;;;;1.93;1.67;;;23.30;57.00;;;;;;6174171;23;20379;-85
2021/09/01 10:10:48;;;;;;;1.33;1.20;;;23.30;57.00;;;;;;6201192;23;20358;-85
2021/09/01 10:13:52;;;;;;;1.50;1.40;;;23.30;57.00;;;;;;6174487;23;20402;-85
2021/09/01 10:16:40;;;;;;;1.43;1.30;;;23.30;57.00;;;;;;6119120;23;20384;-85
2021/09/01 10:19:23;;;;;;;1.37;1.27;;;23.30;57.00;;;;;;6174978;23;20371;-85
2021/09/01 10:22:12;;;;;;;1.53;1.20;;;23.40;57.00;;;;;;6199221;23;20426;-85
2021/09/01 10:24:52;;;;;;;1.40;1.10;;;23.40;57.00;;;;;;6173877;23;20465;-85
2021/09/01 10:28:05;;;;;;;;;;;;;;;;;;;;;
2021/09/01 10:34:19;;;;;;;1.37;1.27;;;23.30;57.00;;;;;;6200347;23;20331;-85
2021/09/01 10:37:34;;;;;;;1.30;1.20;;;23.30;57.00;;;;;;6173370;23;20379;-85
2021/09/01 10:40:06;;;;;;;1.70;1.40;;;23.40;57.10;;;;;;6171243;23;20489;-85
2021/09/01 10:46:12;;;;;;;1.47;1.23;;;23.30;57.00;;;;;;6060763;23;20411;-85
2021/09/01 10:48:59;;;;;;;1.20;1.10;;;23.40;57.10;;;;;;6081342;23;20387;-85
2021/09/01 10:51:37;;;;;;;1.40;1.17;;;23.30;57.00;;;;;;6080052;23;20446;-85
2021/09/01 11:01:17;;;;;;;1.37;1.23;;;23.40;57.10;;;;;;6045813;23;20463;-85
2021/09/01 11:04:13;;;;;;;1.73;1.30;;;23.30;57.00;;;;;;6050886;23;20414;-85
2021/09/01 11:06:43;;;;;;;1.50;1.20;;;23.30;57.00;;;;;;6054900;23;20386;-85
2021/09/01 11:09:14;;;;;;;1.40;1.30;;;23.30;57.00;;;;;;6108716;23;20382;-85
2021/09/01 11:11:41;;;;;;;1.30;1.10;;;23.40;57.60;;;;;;6085986;23;20382;-85
2021/09/01 11:14:59;;;;;;;1.10;1.00;;;23.30;56.90;;;;;;6085624;23;20389;-85
2021/09/01 11:20:58;;;;;;;1.37;1.27;;;23.30;56.90;;;;;;6051688;23;20419;-85
2021/09/01 11:23:34;;;;;;;1.73;1.40;;;23.30;57.00;;;;;;6056895;23;20486;-85
2021/09/01 11:26:16;;;;;;;1.73;1.30;;;23.30;57.00;;;;;;6079639;23;20409;-85
2021/09/01 11:28:47;;;;;;;1.50;1.20;;;23.40;57.10;;;;;;6080145;23;20928;-85
2021/09/01 11:31:22;;;;;;;1.80;1.60;;;23.40;57.10;;;;;;6081689;23;20788;-85
2021/09/01 11:33:56;;;;;;;1.23;1.10;;;23.40;57.10;;;;;;6080050;23;20383;-85
2021/09/01 11:36:29;;;;;;;1.40;1.20;;;23.30;57.00;;;;;;6079878;23;20741;-85
2021/09/01 11:39:00;;;;;;;1.30;1.20;;;23.40;57.10;;;;;;6081132;23;20427;-85
2021/09/01 11:47:59;;;;;;;1.57;1.33;;;23.40;57.10;;;;;;6079743;23;20350;-85
2021/09/01 11:50:28;;;;;;;1.30;1.20;;;23.30;57.10;;;;;;6081545;23;20383;-85
2021/09/01 11:52:57;;;;;;;1.43;1.20;;;23.30;57.20;;;;;;6201922;23;20378;-85
2021/09/01 11:59:08;;;;;;;1.50;1.33;;;23.40;57.20;;;;;;6227254;23;20345;-85
2021/09/01 12:09:07;;;;;;;1.47;1.30;;;23.30;57.10;;;;;;6117972;23;20396;-85
2021/09/01 12:11:45;;;;;;;1.20;1.10;;;23.30;57.30;;;;;;6138659;23;20385;-85
2021/09/01 12:15:07;;;;;;;2.00;0.93;;;23.30;57.30;;;;;;6080188;23;20489;-85
2021/09/01 12:17:39;;;;;;;1.60;1.10;;;23.30;57.20;;;;;;6113749;23;20461;-85
2021/09/01 12:23:59;;;;;;;1.37;1.27;;;23.30;57.30;;;;;;6108747;23;20481;-85
2021/09/01 12:27:07;;;;;;;1.30;1.20;;;23.30;57.30;;;;;;6107705;23;20448;-85
2021/09/01 12:29:49;;;;;;;1.37;1.27;;;23.30;57.30;;;;;;6108743;23;20385;-85
2021/09/01 12:32:21;;;;;;;1.40;1.10;;;23.30;57.30;;;;;;6108271;23;20381;-85
2021/09/01 12:35:14;;;;;;;1.33;1.23;;;23.30;57.30;;;;;;6107645;23;20377;-85
2021/09/01 12:37:40;;;;;;;1.50;1.20;;;23.30;57.20;;;;;;6135719;23;20414;-85
2021/09/01 12:40:16;;;;;;;1.60;1.10;;;23.30;57.30;;;;;;6227849;23;20382;-85
2021/09/01 12:42:45;;;;;;;1.20;1.10;;;23.30;57.30;;;;;;6228609;23;20477;-85
2021/09/01 12:45:21;;;;;;;1.50;1.20;;;23.30;57.30;;;;;;6227429;23;20378;-85
2021/09/01 12:48:16;;;;;;;1.30;1.10;;;23.30;57.30;;;;;;6227618;23;20366;-85
2021/09/01 12:50:43;;;;;;;1.60;1.40;;;23.30;57.30;;;;;;6227082;23;20782;-85
2021/09/01 12:53:22;;;;;;;1.43;1.27;;;23.30;57.30;;;;;;6227243;23;20397;-85
2021/09/01 12:55:53;;;;;;;1.33;1.23;;;23.30;57.30;;;;;;6227504;23;20366;-85
2021/09/01 12:58:19;;;;;;;1.40;1.10;;;23.30;57.30;;;;;;6229212;23;20366;-85
2021/09/01 13:07:45;;;;;;;1.43;1.20;;;23.30;57.30;;;;;;6022027;23;20395;-85
2021/09/01 13:10:18;;;;;;;1.43;1.20;;;23.30;57.40;;;;;;5998732;23;20385;-85
2021/09/01 13:12:44;;;;;;;1.40;1.30;;;23.30;57.40;;;;;;6021964;23;20381;-85
2021/09/01 13:22:03;;;;;;;1.70;1.50;;;23.30;57.40;;;;;;6022257;23;20452;-85
2021/09/01 13:24:30;;;;;;;1.40;1.13;;;23.30;57.40;;;;;;5998328;23;20475;-85
2021/09/01 13:27:00;;;;;;;1.40;1.00;;;23.30;57.40;;;;;;6022225;23;20381;-85
2021/09/01 13:29:31;;;;;;;1.27;1.10;;;23.30;57.40;;;;;;6020835;23;20425;-85
2021/09/01 13:31:58;;;;;;;1.20;1.10;;;23.30;57.40;;;;;;6022837;23;20396;-85
2021/09/01 13:34:27;;;;;;;2.13;1.40;;;23.30;57.40;;;;;;6021147;23;20396;-85
2021/09/01 13:37:05;;;;;;;1.50;1.30;;;23.30;57.40;;;;;;6022069;23;20381;-85
2021/09/01 13:39:31;;;;;;;1.70;1.40;;;23.30;57.40;;;;;;6052069;23;20405;-85
2021/09/01 13:41:56;;;;;;;1.63;1.20;;;23.30;57.40;;;;;;6224962;23;20406;-85
2021/09/01 13:44:23;;;;;;;1.50;1.30;;;23.30;57.40;;;;;;6227053;23;20205;-85
2021/09/01 13:46:52;;;;;;;1.60;1.50;;;23.30;57.40;;;;;;6230027;23;20632;-85
2021/09/01 13:49:17;;;;;;;1.60;1.40;;;23.30;57.40;;;;;;6253043;23;20410;-85
2021/09/01 13:51:43;;;;;;;1.50;1.20;;;23.30;57.40;;;;;;6253389;23;20409;-85
2021/09/01 13:54:23;;;;;;;1.83;1.10;;;23.30;57.40;;;;;;6253634;23;20154;-85
2021/09/01 13:56:49;;;;;;;1.50;1.23;;;23.30;57.40;;;;;;6227334;23;20393;-85
2021/09/01 14:00:07;;;;;;;1.67;1.50;;;23.30;57.40;;;;;;6253090;23;20412;-85
2021/09/01 14:02:33;;;;;;;1.33;1.10;;;23.30;57.40;;;;;;6227792;23;20923;-85
2021/09/01 14:05:43;;;;;;;1.90;1.60;;;23.20;57.30;;;;;;6227664;23;20385;-85
2021/09/01 14:08:09;;;;;;;1.90;1.20;;;23.30;57.40;;;;;;6228108;23;20386;-85
2021/09/01 14:10:35;;;;;;;1.10;1.00;;;23.20;57.30;;;;;;6255184;23;20405;-85
2021/09/01 14:13:07;;;;;;;1.10;1.00;;;23.20;57.30;;;;;;6255392;23;20856;-85
2021/09/01 14:15:34;;;;;;;1.30;1.20;;;23.30;57.40;;;;;;6229315;23;20155;-84
2021/09/01 14:18:02;;;;;;;1.20;1.10;;;23.20;57.40;;;;;;6229107;23;20692;-86
2021/09/01 14:20:32;;;;;;;1.87;1.40;;;23.30;57.40;;;;;;6230522;23;20410;-85
2021/09/01 14:23:02;;;;;;;1.50;1.00;;;23.30;57.40;;;;;;6254147;23;20804;-85
2021/09/01 14:32:10;;;;;;;1.20;1.10;;;23.20;57.40;;;;;;6230274;23;20345;-86
2021/09/01 14:34:36;;;;;;;1.47;1.20;;;23.20;57.40;;;;;;6228892;23;20386;-86
2021/09/01 14:37:38;;;;;;;1.20;1.07;;;23.20;57.40;;;;;;6255162;23;20701;-85
2021/09/01 14:40:50;;;;;;;1.50;1.33;;;23.20;57.50;;;;;;6255033;23;20370;-86
2021/09/01 14:43:20;;;;;;;1.50;1.30;;;23.20;57.50;;;;;;6229024;23;20398;-85
2021/09/01 14:45:46;;;;;;;1.50;1.40;;;23.20;57.50;;;;;;6230207;23;20813;-85
2021/09/01 14:48:14;;;;;;;1.43;1.33;;;23.20;57.60;;;;;;6254253;23;20393;-86
2021/09/01 14:50:43;;;;;;;1.40;1.30;;;23.20;57.60;;;;;;6254379;23;20155;-85
2021/09/01 14:53:09;;;;;;;1.33;1.23;;;23.20;57.50;;;;;;6254337;23;20386;-85
2021/09/01 14:55:35;;;;;;;1.20;1.10;;;23.20;57.50;;;;;;6255500;23;20394;-85
2021/09/01 15:01:22;;;;;;;1.40;1.20;;;23.20;57.50;;;;;;6230863;23;20202;-84
2021/09/01 15:07:11;;;;;;;1.53;1.30;;;23.20;57.60;;;;;;6217788;23;20238;-85
2021/09/01 15:09:36;;;;;;;1.70;1.53;;;23.10;57.60;;;;;;6173351;23;20470;-84
2021/09/01 15:12:08;;;;;;;1.40;1.17;;;23.10;57.60;;;;;;6200104;23;20193;-85
2021/09/01 15:14:34;;;;;;;1.30;1.20;;;23.10;57.60;;;;;;6174711;23;20190;-85
2021/09/01 15:17:20;;;;;;;1.10;1.00;;;23.10;57.60;;;;;;6173499;23;20403;-84
2021/09/01 15:20:09;;;;;;;1.10;1.00;;;23.20;57.70;;;;;;6172957;23;20144;-84
2021/09/01 15:22:38;;;;;;;1.67;1.50;;;23.20;57.70;;;;;;6056338;23;20390;-84
2021/09/01 15:25:04;;;;;;;1.53;1.17;;;23.10;57.70;;;;;;6055758;23;20429;-85
2021/09/01 15:27:30;;;;;;;1.53;1.20;;;23.20;57.70;;;;;;6055646;23;20431;-86